createdAt,value
2022-08-26T00:00:52.015Z,101546.94
2022-08-26T00:03:21.444Z,101540.03
2022-08-26T00:05:51.182Z,101542.00
2022-08-26T00:08:22.674Z,101541.84
2022-08-26T00:10:52.830Z,101546.09
2022-08-26T00:13:21.433Z,101546.66
2022-08-26T00:15:51.498Z,101546.78
2022-08-26T00:18:22.618Z,101539.19
2022-08-26T00:20:51.948Z,101536.16
2022-08-26T00:23:20.684Z,101537.53
2022-08-26T00:25:54.952Z,101536.41
2022-08-26T00:28:25.716Z,101539.94
2022-08-26T00:30:55.386Z,101535.94
2022-08-26T00:33:24.794Z,101542.75
2022-08-26T00:35:53.679Z,101534.13
2022-08-26T00:38:23.118Z,101531.16
2022-08-26T00:40:56.598Z,101532.53
2022-08-26T00:43:26.370Z,101530.16
2022-08-26T00:45:59.319Z,101521.28
2022-08-26T00:48:31.942Z,101525.53
2022-08-26T00:51:05.399Z,101523.84
2022-08-26T00:53:41.471Z,101527.78
2022-08-26T00:56:17.520Z,101533.44
2022-08-26T00:58:48.228Z,101524.97
2022-08-26T01:01:18.428Z,101523.19
2022-08-26T01:03:51.740Z,101528.66
2022-08-26T01:06:21.120Z,101531.41
2022-08-26T01:08:50.057Z,101520.72
2022-08-26T01:11:20.252Z,101530.13
2022-08-26T01:13:50.077Z,101524.78
2022-08-26T01:16:18.839Z,101517.09
2022-08-26T01:18:49.928Z,101522.44
2022-08-26T01:21:27.469Z,101518.19
2022-08-26T01:24:00.994Z,101520.53
2022-08-26T01:26:34.056Z,101526.69
2022-08-26T01:29:06.630Z,101526.06
2022-08-26T01:31:41.937Z,101527.69
2022-08-26T01:34:17.743Z,101530.75
2022-08-26T01:36:51.418Z,101531.47
2022-08-26T01:39:21.948Z,101532.16
2022-08-26T01:41:53.530Z,101536.41
2022-08-26T01:44:26.955Z,101528.69
2022-08-26T01:46:58.553Z,101526.31
2022-08-26T01:49:29.094Z,101520.34
2022-08-26T01:52:02.287Z,101528.06
2022-08-26T01:54:33.907Z,101521.38
2022-08-26T01:57:02.671Z,101521.06
2022-08-26T01:59:32.281Z,101527.47
2022-08-26T02:02:00.962Z,101519.25
2022-08-26T02:04:33.674Z,101514.63
2022-08-26T02:07:06.179Z,101526.53
2022-08-26T02:09:41.323Z,101529.06
2022-08-26T02:12:12.170Z,101538.66
2022-08-26T02:14:44.500Z,101531.53
2022-08-26T02:17:13.756Z,101531.53
2022-08-26T02:19:46.793Z,101531.56
2022-08-26T02:22:18.451Z,101532.94
2022-08-26T02:24:50.515Z,101532.59
2022-08-26T02:27:23.886Z,101536.41
2022-08-26T02:29:55.176Z,101538.03
2022-08-26T02:32:24.001Z,101538.09
2022-08-26T02:34:53.044Z,101543.53
2022-08-26T02:37:22.979Z,101547.66
2022-08-26T02:39:53.137Z,101535.75
2022-08-26T02:42:22.127Z,101534.03
2022-08-26T02:44:51.431Z,101532.88
2022-08-26T02:47:20.210Z,101521.44
2022-08-26T02:49:53.634Z,101526.75
2022-08-26T02:52:22.334Z,101525.56
2022-08-26T02:54:52.633Z,101522.84
2022-08-26T02:57:21.315Z,101513.97
2022-08-26T02:59:50.989Z,101517.38
2022-08-26T03:02:19.853Z,101505.63
2022-08-26T03:04:57.328Z,101512.66
2022-08-26T03:07:29.481Z,101506.19
2022-08-26T03:10:00.981Z,101494.41
2022-08-26T03:12:29.899Z,101493.53
2022-08-26T03:14:58.524Z,101503.41
2022-08-26T03:17:27.362Z,101505.66
2022-08-26T03:19:57.355Z,101498.69
2022-08-26T03:22:27.121Z,101493.53
2022-08-26T03:24:56.142Z,101488.25
2022-08-26T03:27:26.343Z,101487.72
2022-08-26T03:30:14.239Z,101490.81
2022-08-26T03:32:44.389Z,101496.97
2022-08-26T03:35:13.786Z,101485.03
2022-08-26T03:37:42.940Z,101477.19
2022-08-26T03:40:13.076Z,101476.81
2022-08-26T03:42:45.388Z,101476.19
2022-08-26T03:45:16.219Z,101476.34
2022-08-26T03:47:45.785Z,101480.94
2022-08-26T03:50:17.861Z,101483.31
2022-08-26T03:52:52.483Z,101471.75
2022-08-26T03:55:23.666Z,101477.88
2022-08-26T03:57:54.482Z,101480.09
2022-08-26T04:00:24.425Z,101472.78
2022-08-26T04:02:53.551Z,101478.56
2022-08-26T04:05:23.851Z,101480.28
2022-08-26T04:07:53.020Z,101474.50
2022-08-26T04:10:29.126Z,101474.13
2022-08-26T04:12:59.997Z,101470.91
2022-08-26T04:15:29.221Z,101465.13
2022-08-26T04:17:58.526Z,101472.28
2022-08-26T04:20:27.520Z,101476.84
2022-08-26T04:22:57.036Z,101472.44
2022-08-26T04:25:25.984Z,101463.94
2022-08-26T04:27:55.123Z,101462.03
2022-08-26T04:30:25.344Z,101465.31
2022-08-26T04:32:54.429Z,101471.41
2022-08-26T04:35:25.935Z,101463.91
2022-08-26T04:37:55.905Z,101461.88
2022-08-26T04:40:27.767Z,101463.94
2022-08-26T04:42:57.105Z,101473.78
2022-08-26T04:45:27.948Z,101474.81
2022-08-26T04:47:57.801Z,101475.69
2022-08-26T04:50:27.341Z,101461.72
2022-08-26T04:52:56.844Z,101461.69
2022-08-26T04:55:38.133Z,101456.78
2022-08-26T04:58:10.154Z,101464.59
2022-08-26T05:00:40.871Z,101451.84
2022-08-26T05:03:09.664Z,101456.94
2022-08-26T05:05:41.627Z,101457.59
2022-08-26T05:08:11.497Z,101461.69
2022-08-26T05:10:44.403Z,101461.31
2022-08-26T05:13:15.460Z,101472.59
2022-08-26T05:15:47.153Z,101464.22
2022-08-26T05:18:17.477Z,101471.06
2022-08-26T05:20:51.664Z,101479.75
2022-08-26T05:23:24.576Z,101472.94
2022-08-26T05:25:59.382Z,101479.56
2022-08-26T05:28:30.748Z,101489.63
2022-08-26T05:31:01.018Z,101479.25
2022-08-26T05:33:30.792Z,101479.72
2022-08-26T05:35:59.341Z,101491.66
2022-08-26T05:38:30.359Z,101489.44
2022-08-26T05:40:59.428Z,101490.50
2022-08-26T05:43:28.551Z,101492.50
2022-08-26T05:45:57.752Z,101492.69
2022-08-26T05:48:27.844Z,101506.19
2022-08-26T05:50:56.887Z,101494.88
2022-08-26T05:53:26.194Z,101495.22
2022-08-26T05:55:56.513Z,101496.06
2022-08-26T05:58:28.400Z,101504.06
2022-08-26T06:01:03.053Z,101497.22
2022-08-26T06:03:36.104Z,101502.19
2022-08-26T06:06:06.951Z,101498.94
2022-08-26T06:08:36.438Z,101499.94
2022-08-26T06:11:07.778Z,101499.09
2022-08-26T06:13:47.957Z,101497.00
2022-08-26T06:16:19.699Z,101500.06
2022-08-26T06:18:51.617Z,101500.22
2022-08-26T06:21:22.539Z,101500.38
2022-08-26T06:24:12.099Z,101487.28
2022-08-26T06:26:42.650Z,101489.66
2022-08-26T06:29:11.661Z,101492.50
2022-08-26T06:31:45.566Z,101485.63
2022-08-26T06:34:16.108Z,101486.78
2022-08-26T06:36:47.477Z,101483.44
2022-08-26T06:39:18.607Z,101489.47
2022-08-26T06:41:49.410Z,101482.25
2022-08-26T06:44:20.976Z,101485.19
2022-08-26T06:46:50.269Z,101481.38
2022-08-26T06:49:26.827Z,101489.34
2022-08-26T06:51:58.699Z,101491.44
2022-08-26T06:54:28.585Z,101480.97
2022-08-26T06:56:57.768Z,101479.28
2022-08-26T06:59:27.561Z,101493.78
2022-08-26T07:01:56.598Z,101496.03
2022-08-26T07:04:28.126Z,101498.16
2022-08-26T07:06:58.303Z,101500.69
2022-08-26T07:09:29.493Z,101495.56
2022-08-26T07:11:58.383Z,101501.59
2022-08-26T07:14:27.856Z,101496.50
2022-08-26T07:16:56.819Z,101501.31
2022-08-26T07:19:30.354Z,101507.69
2022-08-26T07:22:02.226Z,101507.00
2022-08-26T07:24:32.563Z,101506.72
2022-08-26T07:27:02.715Z,101510.41
2022-08-26T07:29:32.555Z,101512.53
2022-08-26T07:32:01.549Z,101499.25
2022-08-26T07:34:33.104Z,101504.78
2022-08-26T07:37:02.879Z,101503.69
2022-08-26T07:39:32.865Z,101504.81
2022-08-26T07:42:07.273Z,101497.56
2022-08-26T07:44:37.092Z,101489.72
2022-08-26T07:47:10.062Z,101494.34
2022-08-26T07:49:56.342Z,101491.03
2022-08-26T07:52:27.364Z,101498.72
2022-08-26T07:54:58.376Z,101491.06
2022-08-26T07:57:27.567Z,101491.25
2022-08-26T07:59:56.983Z,101491.56
2022-08-26T08:02:27.124Z,101492.50
2022-08-26T08:04:58.294Z,101491.16
2022-08-26T08:07:44.541Z,101491.38
2022-08-26T08:10:18.690Z,101484.84
2022-08-26T08:12:49.955Z,101490.78
2022-08-26T08:15:20.429Z,101497.03
2022-08-26T08:17:50.446Z,101493.84
2022-08-26T08:20:23.477Z,101492.88
2022-08-26T08:22:53.348Z,101499.00
2022-08-26T08:25:23.467Z,101498.53
2022-08-26T08:27:52.346Z,101493.84
2022-08-26T08:30:23.455Z,101490.72
2022-08-26T08:32:52.889Z,101490.44
2022-08-26T08:35:24.417Z,101487.13
2022-08-26T08:37:56.690Z,101493.53
2022-08-26T08:40:28.078Z,101486.94
2022-08-26T08:43:01.157Z,101493.06
2022-08-26T08:45:37.246Z,101490.78
2022-08-26T08:48:11.928Z,101494.47
2022-08-26T08:50:46.989Z,101494.94
2022-08-26T08:53:22.870Z,101487.19
2022-08-26T08:56:09.390Z,101494.94
2022-08-26T08:58:50.798Z,101485.28
2022-08-26T09:01:35.668Z,101485.41
2022-08-26T09:04:21.366Z,101490.03
2022-08-26T09:06:55.527Z,101477.97
2022-08-26T09:09:32.257Z,101483.34
2022-08-26T09:12:03.212Z,101480.31
2022-08-26T09:14:33.367Z,101477.09
2022-08-26T09:17:10.154Z,101477.84
2022-08-26T09:19:44.741Z,101477.41
2022-08-26T09:22:29.686Z,101481.38
2022-08-26T09:24:58.501Z,101481.38
2022-08-26T09:27:43.027Z,101481.00
2022-08-26T09:30:15.150Z,101479.47
2022-08-26T09:32:44.708Z,101483.91
2022-08-26T09:35:27.952Z,101484.28
2022-08-26T09:37:59.650Z,101484.56
2022-08-26T09:40:34.878Z,101482.22
2022-08-26T09:43:16.080Z,101483.50
2022-08-26T09:45:58.479Z,101476.75
2022-08-26T09:48:31.945Z,101484.63
2022-08-26T09:51:06.118Z,101496.84
2022-08-26T09:53:51.619Z,101485.50
2022-08-26T09:56:30.476Z,101485.69
2022-08-26T09:59:00.497Z,101491.16
2022-08-26T10:01:36.830Z,101481.94
2022-08-26T10:04:09.989Z,101480.22
2022-08-26T10:06:42.838Z,101478.81
2022-08-26T10:09:19.484Z,101471.72
2022-08-26T10:11:51.573Z,101471.34
2022-08-26T10:14:25.821Z,101474.34
2022-08-26T10:17:01.021Z,101466.97
2022-08-26T10:19:56.074Z,101457.53
2022-08-26T10:22:31.745Z,101458.06
2022-08-26T10:25:05.275Z,101463.34
2022-08-26T10:27:51.249Z,101457.25
2022-08-26T10:30:25.343Z,101458.19
2022-08-26T10:32:59.304Z,101458.47
2022-08-26T10:35:29.145Z,101448.81
2022-08-26T10:38:05.748Z,101452.75
2022-08-26T10:40:49.065Z,101455.63
2022-08-26T10:43:23.750Z,101456.31
2022-08-26T10:45:58.502Z,101450.81
2022-08-26T10:48:35.424Z,101446.81
2022-08-26T10:51:06.287Z,101438.19
2022-08-26T10:53:47.106Z,101444.75
2022-08-26T10:56:31.571Z,101446.25
2022-08-26T10:59:10.342Z,101439.94
2022-08-26T11:01:51.098Z,101437.72
2022-08-26T11:04:45.768Z,101431.31
2022-08-26T11:07:41.111Z,101419.50
2022-08-26T11:11:03.532Z,101409.66
2022-08-26T11:14:05.068Z,101415.88
2022-08-26T11:16:42.940Z,101407.06
2022-08-26T11:19:14.538Z,101403.06
2022-08-26T11:21:50.918Z,101411.28
2022-08-26T11:25:11.584Z,101405.88
2022-08-26T11:27:57.151Z,101403.66
2022-08-26T11:30:43.070Z,101395.16
2022-08-26T11:33:37.878Z,101395.56
2022-08-26T11:36:12.296Z,101399.38
2022-08-26T11:38:44.026Z,101402.59
2022-08-26T11:41:20.168Z,101400.06
2022-08-26T11:43:52.440Z,101387.38
2022-08-26T11:46:28.907Z,101383.13
2022-08-26T11:49:05.473Z,101390.22
2022-08-26T11:51:40.043Z,101389.63
2022-08-26T11:54:12.628Z,101384.34
2022-08-26T11:56:43.445Z,101383.94
2022-08-26T12:01:50.510Z,101375.00
2022-08-26T12:06:53.787Z,101380.22
2022-08-26T12:09:22.945Z,101370.97
2022-08-26T12:11:52.908Z,101373.06
2022-08-26T12:14:27.954Z,101363.63
2022-08-26T12:17:13.997Z,101369.88
2022-08-26T12:19:43.010Z,101363.53
2022-08-26T12:22:23.092Z,101357.59
2022-08-26T12:24:54.886Z,101355.41
2022-08-26T12:27:25.226Z,101343.81
2022-08-26T12:30:09.835Z,101350.03
2022-08-26T12:32:57.821Z,101343.34
2022-08-26T12:35:29.387Z,101334.72
2022-08-26T12:37:59.216Z,101336.88
2022-08-26T12:40:39.668Z,101332.44
2022-08-26T12:43:09.693Z,101333.50
2022-08-26T12:45:41.975Z,101331.91
2022-08-26T12:48:14.969Z,101331.22
2022-08-26T12:50:50.270Z,101326.44
2022-08-26T12:53:23.672Z,101328.31
2022-08-26T12:55:55.710Z,101328.97
2022-08-26T12:58:27.970Z,101323.84
2022-08-26T13:00:59.416Z,101320.88
2022-08-26T13:03:44.840Z,101315.75
2022-08-26T13:06:30.165Z,101313.66
2022-08-26T13:09:01.292Z,101308.66
2022-08-26T13:11:32.151Z,101304.41
2022-08-26T13:14:07.021Z,101306.97
2022-08-26T13:16:36.943Z,101307.19
2022-08-26T13:19:10.595Z,101311.13
2022-08-26T13:21:45.229Z,101299.53
2022-08-26T13:24:15.755Z,101297.00
2022-08-26T13:26:46.598Z,101300.56
2022-08-26T13:29:15.571Z,101300.50
2022-08-26T13:31:46.009Z,101292.63
2022-08-26T13:34:19.538Z,101295.81
2022-08-26T13:36:48.812Z,101289.47
2022-08-26T13:39:18.012Z,101293.19
2022-08-26T13:41:46.929Z,101285.63
2022-08-26T13:44:15.662Z,101285.81
2022-08-26T13:49:20.033Z,101287.19
2022-08-26T13:51:48.800Z,101278.50
2022-08-26T13:54:17.433Z,101283.63
2022-08-26T13:56:46.303Z,101280.50
2022-08-26T13:59:15.118Z,101287.03
2022-08-26T14:01:44.071Z,101283.66
2022-08-26T14:04:12.764Z,101285.53
2022-08-26T14:06:43.092Z,101274.16
2022-08-26T14:09:11.844Z,101277.16
2022-08-26T14:11:50.548Z,101266.59
2022-08-26T14:14:24.156Z,101262.38
2022-08-26T14:16:59.467Z,101265.97
2022-08-26T14:19:30.296Z,101265.78
2022-08-26T14:22:02.090Z,101255.41
2022-08-26T14:24:31.275Z,101257.34
2022-08-26T14:27:00.100Z,101258.16
2022-08-26T14:29:29.083Z,101257.78
2022-08-26T14:32:00.068Z,101252.03
2022-08-26T14:34:28.818Z,101254.59
2022-08-26T14:36:57.486Z,101258.22
2022-08-26T14:39:38.415Z,101253.78
2022-08-26T14:42:09.270Z,101250.59
2022-08-26T14:44:38.433Z,101253.13
2022-08-26T14:47:07.633Z,101246.38
2022-08-26T14:49:36.713Z,101242.59
2022-08-26T14:52:05.744Z,101253.97
2022-08-26T14:54:33.416Z,101247.00
2022-08-26T14:57:06.618Z,101249.75
2022-08-26T14:59:36.790Z,101245.09
2022-08-26T15:02:06.280Z,101249.75
2022-08-26T15:04:35.218Z,101241.72
2022-08-26T15:07:04.774Z,101234.91
2022-08-26T15:09:36.629Z,101240.63
2022-08-26T15:12:07.607Z,101234.91
2022-08-26T15:14:36.271Z,101236.59
2022-08-26T15:17:05.611Z,101235.09
2022-08-26T15:19:34.307Z,101233.22
2022-08-26T15:22:03.149Z,101232.78
2022-08-26T15:24:32.262Z,101222.59
2022-08-26T15:27:01.062Z,101224.31
2022-08-26T15:29:31.588Z,101220.91
2022-08-26T15:32:05.678Z,101212.25
2022-08-26T15:34:34.356Z,101214.53
2022-08-26T15:37:03.298Z,101216.38
2022-08-26T15:39:32.180Z,101210.69
2022-08-26T15:42:01.138Z,101208.81
2022-08-26T15:44:31.414Z,101207.75
2022-08-26T15:47:00.370Z,101205.34
2022-08-26T15:49:29.116Z,101204.13
2022-08-26T15:51:57.874Z,101195.47
2022-08-26T15:54:26.757Z,101199.28
2022-08-26T15:56:55.491Z,101198.44
2022-08-26T15:59:24.605Z,101188.31
2022-08-26T16:01:55.038Z,101193.63
2022-08-26T16:04:23.824Z,101193.41
2022-08-26T16:06:53.437Z,101203.06
2022-08-26T16:09:27.194Z,101200.19
2022-08-26T16:11:56.817Z,101196.81
2022-08-26T16:14:26.055Z,101197.19
2022-08-26T16:16:57.692Z,101195.75
2022-08-26T16:19:26.545Z,101191.53
2022-08-26T16:21:55.535Z,101195.69
2022-08-26T16:24:29.702Z,101192.06
2022-08-26T16:27:59.674Z,101193.78
2022-08-26T16:30:29.151Z,101196.66
2022-08-26T16:32:58.807Z,101193.22
2022-08-26T16:41:13.678Z,101196.94
2022-08-26T17:00:39.651Z,101195.38
2022-08-26T17:03:08.670Z,101194.22
2022-08-26T17:05:37.731Z,101189.06
2022-08-26T17:08:07.202Z,101183.16
2022-08-26T17:10:36.467Z,101192.94
2022-08-26T17:13:05.312Z,101184.84
2022-08-26T17:15:34.064Z,101184.31
2022-08-26T17:18:04.327Z,101189.84
2022-08-26T17:20:33.850Z,101192.16
2022-08-26T17:23:02.599Z,101199.75
2022-08-26T17:25:33.377Z,101200.22
2022-08-26T17:28:02.250Z,101199.59
2022-08-26T17:30:31.028Z,101204.50
2022-08-26T17:33:00.124Z,101195.81
2022-08-26T17:35:30.195Z,101200.25
2022-08-26T17:37:59.994Z,101199.59
2022-08-26T17:40:31.028Z,101200.81
2022-08-26T17:43:00.315Z,101198.47
2022-08-26T17:45:29.314Z,101206.63
2022-08-26T17:47:58.042Z,101196.28
2022-08-26T17:50:26.801Z,101189.34
2022-08-26T17:52:57.124Z,101191.75
2022-08-26T17:55:26.029Z,101183.56
2022-08-26T17:57:54.689Z,101183.84
2022-08-26T18:00:26.650Z,101180.25
2022-08-26T18:02:55.555Z,101183.56
2022-08-26T18:05:24.956Z,101182.94
2022-08-26T18:07:53.693Z,101186.13
2022-08-26T18:10:25.773Z,101196.34
2022-08-26T18:12:54.753Z,101190.78
2022-08-26T18:15:23.477Z,101194.53
2022-08-26T18:17:52.212Z,101192.38
2022-08-26T18:20:21.416Z,101190.31
2022-08-26T18:22:50.218Z,101192.66
2022-08-26T18:25:19.213Z,101194.41
2022-08-26T18:27:49.855Z,101199.41
2022-08-26T18:30:21.997Z,101190.09
2022-08-26T18:32:51.093Z,101187.16
2022-08-26T18:35:21.541Z,101195.16
2022-08-26T18:37:50.233Z,101198.75
2022-08-26T18:40:19.053Z,101187.16
2022-08-26T18:42:49.296Z,101184.06
2022-08-26T18:45:24.575Z,101187.59
2022-08-26T18:47:53.382Z,101183.00
2022-08-26T18:50:22.139Z,101190.97
2022-08-26T18:52:50.915Z,101185.03
2022-08-26T18:55:19.456Z,101192.09
2022-08-26T18:57:48.073Z,101188.81
2022-08-26T19:00:17.756Z,101189.09
2022-08-26T19:02:51.733Z,101181.13
2022-08-26T19:05:21.363Z,101187.63
2022-08-26T19:07:49.926Z,101179.59
2022-08-26T19:10:18.640Z,101182.53
2022-08-26T19:12:47.079Z,101181.19
2022-08-26T19:15:20.939Z,101182.38
2022-08-26T19:17:50.942Z,101185.50
2022-08-26T19:20:19.816Z,101183.34
2022-08-26T19:22:48.313Z,101179.03
2022-08-26T19:25:17.573Z,101182.63
2022-08-26T19:27:46.173Z,101180.97
2022-08-26T19:30:15.314Z,101183.31
2022-08-26T19:32:43.895Z,101181.97
2022-08-26T19:35:15.084Z,101182.66
2022-08-26T19:37:43.714Z,101182.09
2022-08-26T19:40:12.874Z,101185.19
2022-08-26T19:42:41.575Z,101182.53
2022-08-26T19:45:18.266Z,101186.84
2022-08-26T19:47:54.382Z,101182.28
2022-08-26T19:50:26.656Z,101185.34
2022-08-26T19:52:55.434Z,101186.72
2022-08-26T19:55:24.735Z,101189.59
2022-08-26T19:57:54.003Z,101180.44
2022-08-26T20:00:25.133Z,101187.13
2022-08-26T20:02:54.218Z,101195.28
2022-08-26T20:05:26.967Z,101196.34
2022-08-26T20:07:56.799Z,101192.94
2022-08-26T20:10:25.681Z,101191.22
2022-08-26T20:12:54.357Z,101192.94
2022-08-26T20:15:24.177Z,101197.38
2022-08-26T20:17:52.908Z,101200.13
2022-08-26T20:20:39.354Z,101205.75
2022-08-26T20:23:09.924Z,101204.22
2022-08-26T20:25:38.670Z,101200.81
2022-08-26T20:28:07.321Z,101197.41
2022-08-26T20:30:36.022Z,101198.59
2022-08-26T20:33:04.683Z,101199.63
2022-08-26T20:35:33.880Z,101192.13
2022-08-26T20:38:02.584Z,101199.94
2022-08-26T20:40:33.714Z,101196.75
2022-08-26T20:43:02.468Z,101199.13
2022-08-26T20:45:31.158Z,101193.34
2022-08-26T20:47:59.942Z,101196.91
2022-08-26T20:50:28.863Z,101198.94
2022-08-26T20:52:57.583Z,101205.28
2022-08-26T20:55:26.821Z,101212.75
2022-08-26T20:57:57.140Z,101212.00
2022-08-26T21:00:27.111Z,101207.28
2022-08-26T21:02:57.842Z,101214.44
2022-08-26T21:05:27.102Z,101212.38
2022-08-26T21:07:56.260Z,101211.38
2022-08-26T21:10:24.961Z,101219.03
2022-08-26T21:12:54.640Z,101214.41
2022-08-26T21:15:25.263Z,101212.06
2022-08-26T21:17:54.082Z,101214.06
2022-08-26T21:20:24.140Z,101207.59
2022-08-26T21:22:53.283Z,101211.38
2022-08-26T21:25:22.242Z,101213.75
2022-08-26T21:27:50.920Z,101219.16
2022-08-26T21:30:20.240Z,101218.00
2022-08-26T21:32:50.721Z,101211.34
2022-08-26T21:35:19.840Z,101213.22
2022-08-26T21:37:48.672Z,101217.81
2022-08-26T21:40:17.456Z,101222.09
2022-08-26T21:42:46.240Z,101223.63
2022-08-26T21:45:17.242Z,101223.97
2022-08-26T21:47:47.002Z,101218.84
2022-08-26T21:50:17.580Z,101218.16
2022-08-26T21:52:46.482Z,101222.28
2022-08-26T21:55:15.295Z,101219.88
2022-08-26T21:57:44.102Z,101217.16
2022-08-26T22:00:15.941Z,101215.78
2022-08-26T22:02:44.927Z,101210.16
2022-08-26T22:05:13.824Z,101216.81
2022-08-26T22:07:44.280Z,101204.41
2022-08-26T22:10:13.294Z,101205.25
2022-08-26T22:12:42.083Z,101203.38
2022-08-26T22:15:12.385Z,101202.88
2022-08-26T22:17:41.443Z,101195.56
2022-08-26T22:20:16.467Z,101193.03
2022-08-26T22:22:47.156Z,101199.13
2022-08-26T22:25:15.865Z,101199.13
2022-08-26T22:27:44.682Z,101197.59
2022-08-26T22:30:13.950Z,101193.19
2022-08-26T22:32:44.141Z,101194.22
2022-08-26T22:35:28.426Z,101188.06
2022-08-26T22:38:00.863Z,101193.34
2022-08-26T22:40:29.596Z,101190.78
2022-08-26T22:43:00.049Z,101192.81
2022-08-26T22:45:29.572Z,101179.91
2022-08-26T22:47:58.864Z,101181.06
2022-08-26T22:50:28.064Z,101176.16
2022-08-26T22:52:56.883Z,101181.25
2022-08-26T22:55:27.051Z,101178.03
2022-08-26T22:57:55.845Z,101186.00
2022-08-26T23:00:32.198Z,101182.94
2022-08-26T23:03:02.210Z,101174.78
2022-08-26T23:05:31.303Z,101181.41
2022-08-26T23:08:00.783Z,101182.78
2022-08-26T23:10:31.006Z,101183.78
2022-08-26T23:12:59.905Z,101187.13
2022-08-26T23:15:28.742Z,101184.22
2022-08-26T23:18:09.699Z,101173.25
2022-08-26T23:20:39.406Z,101171.91
2022-08-26T23:23:08.519Z,101168.81
2022-08-26T23:25:38.866Z,101167.13
2022-08-26T23:28:10.540Z,101176.63
2022-08-26T23:30:39.401Z,101176.13
2022-08-26T23:33:08.136Z,101168.13
2022-08-26T23:35:35.823Z,101171.91
2022-08-26T23:38:07.056Z,101171.56
2022-08-26T23:40:40.803Z,101172.41
2022-08-26T23:43:11.682Z,101181.16
2022-08-26T23:45:40.593Z,101165.84
2022-08-26T23:48:09.480Z,101172.47
2022-08-26T23:50:55.703Z,101163.31
2022-08-26T23:53:24.584Z,101169.41
2022-08-26T23:55:54.987Z,101158.81
2022-08-26T23:58:24.023Z,101159.81
